createdAt,value
2017-06-30T00:00:47.756Z,989.74
2017-06-30T00:01:56.693Z,989.66
2017-06-30T00:03:05.700Z,989.57
2017-06-30T00:04:14.898Z,989.58
2017-06-30T00:05:23.904Z,989.62
2017-06-30T00:06:32.911Z,989.68
2017-06-30T00:07:41.943Z,989.71
2017-06-30T00:08:50.938Z,989.76
2017-06-30T00:10:00.404Z,989.79
2017-06-30T00:11:09.394Z,989.74
2017-06-30T00:12:18.442Z,989.7
2017-06-30T00:13:27.542Z,989.71
2017-06-30T00:14:36.490Z,989.69
2017-06-30T00:15:45.876Z,989.75
2017-06-30T00:16:54.858Z,989.82
2017-06-30T00:18:03.958Z,989.76
2017-06-30T00:19:13.072Z,989.68
2017-06-30T00:20:22.115Z,989.77
2017-06-30T00:21:31.386Z,989.81
2017-06-30T00:22:40.415Z,989.88
2017-06-30T00:23:49.676Z,989.9
2017-06-30T00:24:58.626Z,989.87
2017-06-30T00:26:07.601Z,989.81
2017-06-30T00:27:16.858Z,989.86
2017-06-30T00:28:26.062Z,989.85
2017-06-30T00:29:35.068Z,989.8
2017-06-30T00:30:44.397Z,989.79
2017-06-30T00:31:53.737Z,989.78
2017-06-30T00:33:03.298Z,989.87
2017-06-30T00:34:12.418Z,989.88
2017-06-30T00:35:21.370Z,989.89
2017-06-30T00:36:30.349Z,989.91
2017-06-30T00:37:39.431Z,989.85
2017-06-30T00:38:48.625Z,989.89
2017-06-30T00:39:57.670Z,989.92
2017-06-30T00:41:06.654Z,989.99
2017-06-30T00:42:15.794Z,989.91
2017-06-30T00:43:24.936Z,989.95
2017-06-30T00:44:34.388Z,989.91
2017-06-30T00:45:43.445Z,989.89
2017-06-30T00:46:52.555Z,989.99
2017-06-30T00:48:01.687Z,990.08
2017-06-30T00:49:10.738Z,990.06
2017-06-30T00:50:19.973Z,990.01
2017-06-30T00:51:29.106Z,990.04
2017-06-30T00:52:38.194Z,990.06
2017-06-30T00:53:47.214Z,990.07
2017-06-30T00:54:56.250Z,990.05
2017-06-30T00:56:05.890Z,990.13
2017-06-30T00:57:14.886Z,990.08
2017-06-30T00:58:23.842Z,990.16
2017-06-30T00:59:32.789Z,990.14
2017-06-30T01:00:41.858Z,990.11
2017-06-30T01:01:51.384Z,990.07
2017-06-30T01:03:00.328Z,990.15
2017-06-30T01:04:09.616Z,990.14
2017-06-30T01:05:18.684Z,990.05
2017-06-30T01:06:27.885Z,990.01
2017-06-30T01:07:37.114Z,990.07
2017-06-30T01:08:46.437Z,990.08
2017-06-30T01:09:55.416Z,990.13
2017-06-30T01:11:04.764Z,990.12
2017-06-30T01:12:13.712Z,990.14
2017-06-30T01:13:23.063Z,990.07
2017-06-30T01:14:32.163Z,990.02
2017-06-30T01:15:41.358Z,990.05
2017-06-30T01:16:50.555Z,990.09
2017-06-30T01:17:59.662Z,990.14
2017-06-30T01:19:09.204Z,990.22
2017-06-30T01:20:18.467Z,990.2
2017-06-30T01:21:27.710Z,990.21
2017-06-30T01:22:37.040Z,990.18
2017-06-30T01:23:46.343Z,990.2
2017-06-30T01:24:55.647Z,990.17
2017-06-30T01:26:04.592Z,990.16
2017-06-30T01:27:13.857Z,990.2
2017-06-30T01:28:22.951Z,990.22
2017-06-30T01:29:32.029Z,990.24
2017-06-30T01:30:41.218Z,990.12
2017-06-30T01:31:50.320Z,990.14
2017-06-30T01:32:59.354Z,990.03
2017-06-30T01:34:08.351Z,990.13
2017-06-30T01:35:17.353Z,990.17
2017-06-30T01:36:26.548Z,990.14
2017-06-30T01:37:35.566Z,990.21
2017-06-30T01:38:44.552Z,990.13
2017-06-30T01:39:53.509Z,990.19
2017-06-30T01:41:02.843Z,990.27
2017-06-30T01:42:12.065Z,990.31
2017-06-30T01:43:21.042Z,990.27
2017-06-30T01:44:30.065Z,990.28
2017-06-30T01:45:39.011Z,990.3
2017-06-30T01:46:47.990Z,990.28
2017-06-30T01:47:57.475Z,990.21
2017-06-30T01:49:06.761Z,990.26
2017-06-30T01:50:15.886Z,990.21
2017-06-30T01:51:24.825Z,990.21
2017-06-30T01:52:33.881Z,990.3
2017-06-30T01:53:43.075Z,990.27
2017-06-30T01:54:52.121Z,990.17
2017-06-30T01:56:01.072Z,990.12
2017-06-30T01:57:10.013Z,990.18
2017-06-30T01:58:18.987Z,990.22
2017-06-30T01:59:28.177Z,990.23
2017-06-30T02:00:37.452Z,990.2
2017-06-30T02:01:46.402Z,990.23
2017-06-30T02:02:55.347Z,990.26
2017-06-30T02:04:04.641Z,990.24
2017-06-30T02:05:13.877Z,990.23
2017-06-30T02:06:22.903Z,990.09
2017-06-30T02:07:31.842Z,990.14
2017-06-30T02:08:40.797Z,990.08
2017-06-30T02:09:49.738Z,990.04
2017-06-30T02:10:58.926Z,990.03
2017-06-30T02:12:07.864Z,990.08
2017-06-30T02:13:16.815Z,990.14
2017-06-30T02:14:25.759Z,990.2
2017-06-30T02:15:34.703Z,990.23
2017-06-30T02:16:43.897Z,990.25
2017-06-30T02:17:52.933Z,990.27
2017-06-30T02:19:01.878Z,990.3
2017-06-30T02:20:11.173Z,990.3
2017-06-30T02:21:20.118Z,990.27
2017-06-30T02:22:29.310Z,990.34
2017-06-30T02:23:38.337Z,990.25
2017-06-30T02:24:47.276Z,990.3
2017-06-30T02:25:56.217Z,990.38
2017-06-30T02:27:05.246Z,990.4
2017-06-30T02:28:14.446Z,990.39
2017-06-30T02:29:23.398Z,990.43
2017-06-30T02:30:32.344Z,990.35
2017-06-30T02:31:41.295Z,990.37
2017-06-30T02:32:50.239Z,990.35
2017-06-30T02:33:59.435Z,990.4
2017-06-30T02:35:08.475Z,990.43
2017-06-30T02:36:17.450Z,990.45
2017-06-30T02:37:26.399Z,990.42
2017-06-30T02:38:35.350Z,990.37
2017-06-30T02:39:44.548Z,990.35
2017-06-30T02:40:53.487Z,990.38
2017-06-30T02:42:02.437Z,990.47
2017-06-30T02:43:11.402Z,990.47
2017-06-30T02:44:20.346Z,990.49
2017-06-30T02:45:29.531Z,990.44
2017-06-30T02:46:38.475Z,990.52
2017-06-30T02:47:47.462Z,990.52
2017-06-30T02:48:56.416Z,990.56
2017-06-30T02:50:05.368Z,990.58
2017-06-30T02:51:14.566Z,990.53
2017-06-30T02:52:23.512Z,990.54
2017-06-30T02:53:32.449Z,990.58
2017-06-30T02:54:41.393Z,990.65
2017-06-30T02:55:50.469Z,990.65
2017-06-30T02:56:59.671Z,990.59
2017-06-30T02:58:08.974Z,990.61
2017-06-30T02:59:17.917Z,990.65
2017-06-30T03:00:26.978Z,990.59
2017-06-30T03:01:35.919Z,990.67
2017-06-30T03:02:45.116Z,990.68
2017-06-30T03:03:54.051Z,990.6
2017-06-30T03:05:02.989Z,990.61
2017-06-30T03:06:11.934Z,990.69
2017-06-30T03:07:20.877Z,990.63
2017-06-30T03:08:30.080Z,990.56
2017-06-30T03:09:39.022Z,990.54
2017-06-30T03:10:47.998Z,990.57
2017-06-30T03:11:56.964Z,990.69
2017-06-30T03:13:05.909Z,990.71
2017-06-30T03:14:15.154Z,990.67
2017-06-30T03:15:24.093Z,990.63
2017-06-30T03:16:33.042Z,990.59
2017-06-30T03:17:41.985Z,990.66
2017-06-30T03:18:50.929Z,990.72
2017-06-30T03:20:00.121Z,990.7
2017-06-30T03:21:09.072Z,990.79
2017-06-30T03:22:18.013Z,990.69
2017-06-30T03:23:26.955Z,990.73
2017-06-30T03:24:35.904Z,990.8
2017-06-30T03:25:45.095Z,990.85
2017-06-30T03:26:54.036Z,990.82
2017-06-30T03:28:02.987Z,990.82
2017-06-30T03:29:11.933Z,990.76
2017-06-30T03:30:20.870Z,990.69
2017-06-30T03:31:30.073Z,990.64
2017-06-30T03:32:39.018Z,990.68
2017-06-30T03:33:47.971Z,990.66
2017-06-30T03:34:56.920Z,990.62
2017-06-30T03:36:05.870Z,990.67
2017-06-30T03:37:15.077Z,990.68
2017-06-30T03:38:24.021Z,990.75
2017-06-30T03:39:32.969Z,990.72
2017-06-30T03:40:41.911Z,990.83
2017-06-30T03:41:50.863Z,990.77
2017-06-30T03:43:00.107Z,990.84
2017-06-30T03:44:09.143Z,990.77
2017-06-30T03:45:18.090Z,990.78
2017-06-30T03:46:27.031Z,990.74
2017-06-30T03:47:36.063Z,990.76
2017-06-30T03:48:45.383Z,990.79
2017-06-30T03:49:54.382Z,990.77
2017-06-30T03:51:03.324Z,990.73
2017-06-30T03:52:12.275Z,990.71
2017-06-30T03:53:21.218Z,990.78
2017-06-30T03:54:30.560Z,990.8
2017-06-30T03:55:39.502Z,990.78
2017-06-30T03:56:48.779Z,990.88
2017-06-30T03:57:57.723Z,990.81
2017-06-30T03:59:06.995Z,990.91
2017-06-30T04:00:16.297Z,990.93
2017-06-30T04:01:25.323Z,990.89
2017-06-30T04:02:34.272Z,990.89
2017-06-30T04:03:43.309Z,990.85
2017-06-30T04:04:52.246Z,990.9
2017-06-30T04:06:01.525Z,990.92
2017-06-30T04:07:10.469Z,990.92
2017-06-30T04:08:19.404Z,990.94
2017-06-30T04:09:28.349Z,991
2017-06-30T04:10:37.609Z,991.02
2017-06-30T04:11:46.809Z,991.08
2017-06-30T04:12:55.869Z,991.03
2017-06-30T04:14:04.821Z,991.03
2017-06-30T04:15:13.794Z,991.02
2017-06-30T04:16:22.752Z,990.98
2017-06-30T04:17:31.946Z,991.04
2017-06-30T04:18:40.895Z,991.05
2017-06-30T04:19:49.929Z,991.12
2017-06-30T04:20:58.881Z,991.19
2017-06-30T04:22:07.831Z,991.34
2017-06-30T04:23:17.031Z,991.27
2017-06-30T04:24:26.289Z,991.16
2017-06-30T04:25:35.231Z,991.13
2017-06-30T04:26:44.184Z,991.17
2017-06-30T04:27:53.142Z,991.14
2017-06-30T04:29:02.331Z,991.2
2017-06-30T04:30:11.280Z,991.26
2017-06-30T04:31:20.275Z,991.26
2017-06-30T04:32:29.301Z,991.25
2017-06-30T04:33:38.242Z,991.19
2017-06-30T04:34:47.484Z,991.23
2017-06-30T04:35:56.427Z,991.25
2017-06-30T04:37:05.388Z,991.31
2017-06-30T04:38:14.331Z,991.31
2017-06-30T04:39:23.278Z,991.32
2017-06-30T04:40:32.467Z,991.25
2017-06-30T04:41:41.414Z,991.31
2017-06-30T04:42:50.368Z,991.4
2017-06-30T04:43:59.305Z,991.37
2017-06-30T04:45:08.253Z,991.29
2017-06-30T04:46:17.488Z,991.27
2017-06-30T04:47:26.486Z,991.31
2017-06-30T04:48:35.427Z,991.28
2017-06-30T04:49:44.381Z,991.35
2017-06-30T04:50:53.326Z,991.29
2017-06-30T04:52:02.570Z,991.37
2017-06-30T04:53:11.517Z,991.41
2017-06-30T04:54:20.461Z,991.46
2017-06-30T04:55:29.418Z,991.5
2017-06-30T04:56:38.444Z,991.55
2017-06-30T04:57:47.635Z,991.63
2017-06-30T04:58:56.575Z,991.52
2017-06-30T05:00:05.518Z,991.5
2017-06-30T05:01:14.459Z,991.51
2017-06-30T05:02:23.411Z,991.63
2017-06-30T05:03:32.602Z,991.62
2017-06-30T05:04:41.875Z,991.7
2017-06-30T05:05:50.826Z,991.66
2017-06-30T05:06:59.783Z,991.69
2017-06-30T05:08:08.726Z,991.71
2017-06-30T05:09:18.011Z,991.66
2017-06-30T05:10:26.963Z,991.6
2017-06-30T05:11:35.904Z,991.6
2017-06-30T05:12:44.853Z,991.65
2017-06-30T05:13:53.902Z,991.61
2017-06-30T05:15:03.100Z,991.6
2017-06-30T05:16:12.045Z,991.66
2017-06-30T05:17:21.072Z,991.68
2017-06-30T05:18:30.038Z,991.72
2017-06-30T05:19:39.629Z,991.78
2017-06-30T05:20:49.162Z,991.85
2017-06-30T05:21:58.190Z,991.82
2017-06-30T05:23:07.141Z,991.85
2017-06-30T05:24:16.090Z,991.79
2017-06-30T05:25:25.029Z,991.76
2017-06-30T05:26:34.269Z,991.78
2017-06-30T05:27:43.247Z,991.73
2017-06-30T05:28:52.198Z,991.81
2017-06-30T05:30:01.228Z,991.91
2017-06-30T05:31:10.183Z,991.91
2017-06-30T05:32:19.377Z,991.89
2017-06-30T05:33:28.335Z,991.84
2017-06-30T05:34:37.278Z,991.88
2017-06-30T05:35:46.314Z,991.88
2017-06-30T05:36:55.256Z,991.92
2017-06-30T05:38:04.507Z,991.97
2017-06-30T05:39:13.454Z,992.12
2017-06-30T05:40:22.388Z,992.05
2017-06-30T05:41:31.343Z,991.95
2017-06-30T05:42:40.292Z,991.91
2017-06-30T05:43:49.485Z,991.88
2017-06-30T05:44:58.439Z,991.92
2017-06-30T05:46:07.379Z,992.02
2017-06-30T05:47:16.323Z,992.04
2017-06-30T05:48:25.268Z,992.12
2017-06-30T05:49:34.524Z,992.19
2017-06-30T05:50:43.473Z,992.27
2017-06-30T05:51:52.433Z,992.36
2017-06-30T05:53:01.407Z,992.34
2017-06-30T05:54:10.353Z,992.33
2017-06-30T05:55:19.540Z,992.34
2017-06-30T05:56:28.491Z,992.46
2017-06-30T05:57:37.436Z,992.37
2017-06-30T05:58:46.382Z,992.39
2017-06-30T05:59:55.378Z,992.45
2017-06-30T06:01:04.698Z,992.39
2017-06-30T06:02:13.917Z,992.49
2017-06-30T06:03:22.974Z,992.51
2017-06-30T06:04:31.921Z,992.53
2017-06-30T06:05:41.096Z,992.6
2017-06-30T06:06:50.463Z,992.61
2017-06-30T06:07:59.531Z,992.68
2017-06-30T06:09:08.658Z,992.61
2017-06-30T06:10:17.876Z,992.59
2017-06-30T06:11:26.986Z,992.65
2017-06-30T06:12:36.234Z,992.66
2017-06-30T06:13:45.335Z,992.56
2017-06-30T06:14:54.450Z,992.63
2017-06-30T06:16:03.402Z,992.72
2017-06-30T06:17:12.501Z,992.73
2017-06-30T06:18:21.948Z,992.77
2017-06-30T06:19:31.121Z,992.9
2017-06-30T06:20:40.177Z,992.92
2017-06-30T06:21:49.180Z,992.99
2017-06-30T06:22:58.211Z,992.98
2017-06-30T06:24:07.593Z,992.99
2017-06-30T06:25:16.900Z,992.87
2017-06-30T06:26:26.201Z,993
2017-06-30T06:27:35.152Z,993.01
2017-06-30T06:28:44.193Z,992.94
2017-06-30T06:29:53.401Z,992.93
2017-06-30T06:31:02.412Z,993.06
2017-06-30T06:32:11.372Z,993.02
2017-06-30T06:33:20.403Z,993.08
2017-06-30T06:34:29.391Z,993.03
2017-06-30T06:35:38.644Z,993.07
2017-06-30T06:36:47.593Z,993.12
2017-06-30T06:37:56.545Z,993.11
2017-06-30T06:39:05.506Z,993.08
2017-06-30T06:40:14.718Z,993.09
2017-06-30T06:41:23.975Z,993.07
2017-06-30T06:42:32.936Z,992.99
2017-06-30T06:43:41.890Z,992.98
2017-06-30T06:44:50.841Z,993.08
2017-06-30T06:46:00.102Z,993.18
2017-06-30T06:47:09.365Z,993.28
2017-06-30T06:48:18.699Z,993.37
2017-06-30T06:49:27.657Z,993.32
2017-06-30T06:50:36.703Z,993.38
2017-06-30T06:51:45.686Z,993.44
2017-06-30T06:52:54.989Z,993.42
2017-06-30T06:54:04.082Z,993.32
2017-06-30T06:55:13.059Z,993.29
2017-06-30T06:56:22.003Z,993.44
2017-06-30T06:57:31.031Z,993.47
2017-06-30T06:58:40.277Z,993.49
2017-06-30T06:59:49.219Z,993.54
2017-06-30T07:00:58.170Z,993.54
2017-06-30T07:02:07.118Z,993.47
2017-06-30T07:03:16.094Z,993.44
2017-06-30T07:04:25.338Z,993.39
2017-06-30T07:05:34.274Z,993.45
2017-06-30T07:06:43.257Z,993.54
2017-06-30T07:07:53.344Z,993.42
2017-06-30T07:09:02.301Z,993.4
2017-06-30T07:10:11.513Z,993.51
2017-06-30T07:11:20.654Z,993.58
2017-06-30T07:12:29.764Z,993.52
2017-06-30T07:13:38.710Z,993.5
2017-06-30T07:14:47.707Z,993.57
2017-06-30T07:15:56.966Z,993.6
2017-06-30T07:17:05.918Z,993.74
2017-06-30T07:18:14.944Z,993.8
2017-06-30T07:19:23.962Z,993.9
2017-06-30T07:20:32.904Z,993.85
2017-06-30T07:21:42.161Z,993.85
2017-06-30T07:22:51.367Z,993.92
2017-06-30T07:24:00.472Z,993.88
2017-06-30T07:25:09.495Z,993.79
2017-06-30T07:26:18.532Z,993.71
2017-06-30T07:27:27.869Z,993.61
2017-06-30T07:28:37.224Z,993.7
2017-06-30T07:29:46.203Z,993.67
2017-06-30T07:30:55.150Z,993.73
2017-06-30T07:32:04.141Z,993.77
2017-06-30T07:33:13.466Z,993.83
2017-06-30T07:34:22.446Z,993.81
2017-06-30T07:35:31.434Z,993.78
2017-06-30T07:36:40.388Z,993.83
2017-06-30T07:37:49.585Z,993.9
2017-06-30T07:38:58.843Z,993.89
2017-06-30T07:40:07.788Z,993.94
2017-06-30T07:41:16.832Z,994.02
2017-06-30T07:42:25.902Z,993.96
2017-06-30T07:43:34.843Z,993.9
2017-06-30T07:44:44.135Z,993.84
2017-06-30T07:45:53.112Z,993.84
2017-06-30T07:47:02.070Z,993.9
2017-06-30T07:48:11.015Z,994.03
2017-06-30T07:49:20.132Z,993.9
2017-06-30T07:50:29.412Z,993.91
2017-06-30T07:51:38.424Z,994.06
2017-06-30T07:52:47.574Z,994.1
2017-06-30T07:53:56.611Z,994.04
2017-06-30T07:55:05.636Z,994.01
2017-06-30T07:56:14.831Z,994.05
2017-06-30T07:57:23.863Z,994.15
2017-06-30T07:58:32.941Z,994.09
2017-06-30T07:59:41.968Z,994.1
2017-06-30T08:00:51.026Z,994.04
2017-06-30T08:02:00.430Z,994.22
2017-06-30T08:03:09.377Z,994.15
2017-06-30T08:04:18.498Z,994
2017-06-30T08:05:27.448Z,993.98
2017-06-30T08:06:36.392Z,994
2017-06-30T08:07:45.722Z,994.11
2017-06-30T08:08:54.673Z,994.17
2017-06-30T08:10:03.699Z,994.06
2017-06-30T08:11:12.731Z,994.09
2017-06-30T08:12:21.786Z,994.1
2017-06-30T08:13:31.049Z,994.16
2017-06-30T08:14:40.029Z,994.14
2017-06-30T08:15:49.052Z,994.16
2017-06-30T08:16:58.079Z,994.04
2017-06-30T08:18:07.109Z,994.03
2017-06-30T08:19:16.305Z,994.14
2017-06-30T08:20:25.501Z,994.13
2017-06-30T08:21:34.504Z,994.18
2017-06-30T08:22:43.561Z,994.12
2017-06-30T08:23:52.580Z,994.13
2017-06-30T08:25:01.849Z,994.14
2017-06-30T08:26:10.864Z,994.25
2017-06-30T08:27:19.894Z,994.3
2017-06-30T08:28:34.294Z,994.37
2017-06-30T08:29:43.509Z,994.26
2017-06-30T08:30:53.272Z,994.21
2017-06-30T08:32:02.387Z,994.32
2017-06-30T08:33:11.757Z,994.3
2017-06-30T08:34:20.984Z,994.31
2017-06-30T08:35:30.696Z,994.37
2017-06-30T08:36:40.040Z,994.37
2017-06-30T08:37:49.725Z,994.34
2017-06-30T08:38:58.695Z,994.35
2017-06-30T08:40:07.661Z,994.33
2017-06-30T08:41:16.622Z,994.21
2017-06-30T08:42:25.914Z,994.29
2017-06-30T08:43:34.880Z,994.27
2017-06-30T08:44:44.523Z,994.31
2017-06-30T08:45:53.487Z,994.26
2017-06-30T08:47:02.618Z,994.18
2017-06-30T08:48:11.955Z,994.16
2017-06-30T08:49:21.253Z,994.11
2017-06-30T08:50:30.226Z,994.17
2017-06-30T08:51:39.316Z,994.22
2017-06-30T08:52:48.292Z,994.22
2017-06-30T08:53:57.520Z,994.28
2017-06-30T08:55:06.488Z,994.29
2017-06-30T08:56:15.457Z,994.3
2017-06-30T08:57:24.426Z,994.26
2017-06-30T08:58:33.403Z,994.27
2017-06-30T08:59:42.623Z,994.32
2017-06-30T09:00:51.601Z,994.4
2017-06-30T09:02:00.571Z,994.47
2017-06-30T09:03:09.627Z,994.54
2017-06-30T09:04:19.042Z,994.67
2017-06-30T09:05:28.382Z,994.88
2017-06-30T09:06:37.488Z,994.95
2017-06-30T09:07:46.473Z,994.99
2017-06-30T09:08:55.450Z,995.02
2017-06-30T09:10:04.725Z,994.94
2017-06-30T09:11:13.937Z,994.82
2017-06-30T09:12:22.975Z,994.86
2017-06-30T09:13:31.922Z,994.94
2017-06-30T09:14:40.963Z,994.97
2017-06-30T09:15:49.913Z,994.92
2017-06-30T09:16:59.192Z,994.99
2017-06-30T09:18:08.141Z,994.91
2017-06-30T09:19:17.276Z,994.83
2017-06-30T09:20:28.459Z,994.74
2017-06-30T09:21:37.403Z,994.73
2017-06-30T09:22:46.649Z,994.79
2017-06-30T09:23:55.591Z,994.84
2017-06-30T09:25:04.577Z,994.91
2017-06-30T09:26:13.525Z,995.02
2017-06-30T09:27:22.475Z,995.05
2017-06-30T09:28:31.686Z,995.09
2017-06-30T09:29:40.949Z,995.11
2017-06-30T09:30:50.272Z,995.16
2017-06-30T09:32:02.724Z,995.15
2017-06-30T09:33:15.011Z,995.1
2017-06-30T09:34:27.890Z,995.03
2017-06-30T09:35:40.589Z,995.02
2017-06-30T09:36:52.875Z,995.01
2017-06-30T09:38:05.731Z,994.98
2017-06-30T09:39:14.994Z,995.12
2017-06-30T09:40:24.435Z,995.16
2017-06-30T09:41:33.742Z,995.1
2017-06-30T09:42:43.261Z,995.09
2017-06-30T09:43:53.343Z,995.03
2017-06-30T09:45:03.010Z,995.09
2017-06-30T09:46:13.032Z,995.1
2017-06-30T09:47:22.725Z,995.18
2017-06-30T09:48:33.095Z,995.33
2017-06-30T09:49:42.910Z,995.32
2017-06-30T09:50:52.576Z,995.3
2017-06-30T09:52:02.545Z,995.33
2017-06-30T09:53:11.993Z,995.25
2017-06-30T09:54:21.378Z,995.32
2017-06-30T09:55:30.683Z,995.41
2017-06-30T09:56:40.020Z,995.42
2017-06-30T09:57:49.992Z,995.36
2017-06-30T09:58:59.439Z,995.34
2017-06-30T10:00:08.753Z,995.36
2017-06-30T10:01:18.348Z,995.36
2017-06-30T10:02:27.782Z,995.4
2017-06-30T10:03:37.223Z,995.31
2017-06-30T10:04:47.057Z,995.31
2017-06-30T10:05:57.040Z,995.33
2017-06-30T10:07:06.688Z,995.58
2017-06-30T10:08:16.519Z,995.61
2017-06-30T10:09:26.403Z,995.65
2017-06-30T10:10:35.709Z,995.62
2017-06-30T10:11:45.307Z,995.65
2017-06-30T10:12:55.178Z,995.67
2017-06-30T10:14:05.322Z,995.67
2017-06-30T10:15:14.541Z,995.66
2017-06-30T10:16:25.133Z,995.63
2017-06-30T10:17:35.352Z,995.71
2017-06-30T10:18:44.904Z,995.74
2017-06-30T10:19:54.912Z,995.79
2017-06-30T10:21:04.343Z,995.76
2017-06-30T10:22:15.018Z,995.79
2017-06-30T10:23:24.970Z,995.75
2017-06-30T10:24:35.105Z,995.72
2017-06-30T10:25:45.074Z,995.73
2017-06-30T10:26:54.774Z,995.76
2017-06-30T10:28:04.475Z,995.7
2017-06-30T10:29:14.089Z,995.57
2017-06-30T10:30:23.638Z,995.58
2017-06-30T10:31:33.831Z,995.69
2017-06-30T10:32:43.197Z,995.82
2017-06-30T10:33:52.721Z,995.92
2017-06-30T10:35:02.345Z,995.95
2017-06-30T10:36:11.760Z,995.91
2017-06-30T10:37:21.300Z,995.84
2017-06-30T10:38:30.560Z,995.83
2017-06-30T10:39:40.151Z,995.82
2017-06-30T10:40:49.753Z,995.9
2017-06-30T10:41:59.095Z,995.91
2017-06-30T10:43:08.847Z,995.82
2017-06-30T10:44:18.454Z,995.83
2017-06-30T10:45:27.967Z,995.88
2017-06-30T10:46:37.132Z,995.95
2017-06-30T10:47:46.555Z,995.99
2017-06-30T10:48:56.391Z,996.02
2017-06-30T10:50:05.738Z,995.94
2017-06-30T10:51:15.167Z,995.98
2017-06-30T10:52:24.911Z,996.01
2017-06-30T10:53:34.590Z,996.01
2017-06-30T10:54:43.833Z,995.95
2017-06-30T10:55:52.781Z,995.9
2017-06-30T10:57:02.054Z,995.91
2017-06-30T10:58:11.009Z,995.91
2017-06-30T10:59:19.955Z,995.95
2017-06-30T11:00:29.334Z,996.02
2017-06-30T11:01:38.319Z,996.06
2017-06-30T11:02:47.588Z,996.16
2017-06-30T11:03:56.570Z,996.23
2017-06-30T11:05:05.567Z,996.2
2017-06-30T11:06:14.825Z,996.25
2017-06-30T11:07:23.862Z,996.32
2017-06-30T11:08:32.859Z,996.25
2017-06-30T11:09:41.888Z,996.27
2017-06-30T11:10:50.914Z,996.21
2017-06-30T11:12:00.113Z,996.2
2017-06-30T11:13:09.152Z,996.29
2017-06-30T11:14:18.134Z,996.41
2017-06-30T11:15:27.134Z,996.05
2017-06-30T11:16:36.152Z,996.15
2017-06-30T11:17:45.354Z,996.21
2017-06-30T11:18:54.310Z,996.17
2017-06-30T11:20:03.335Z,996.18
2017-06-30T11:21:12.331Z,996.24
2017-06-30T11:22:21.286Z,996.18
2017-06-30T11:23:30.546Z,996.2
2017-06-30T11:24:39.824Z,996.25
2017-06-30T11:25:48.812Z,996.28
2017-06-30T11:26:58.031Z,996.21
2017-06-30T11:28:07.241Z,996.27
2017-06-30T11:29:16.743Z,996.26
2017-06-30T11:30:25.860Z,996.21
2017-06-30T11:31:35.246Z,996.24
2017-06-30T11:32:44.281Z,996.18
2017-06-30T11:33:53.232Z,996.25
2017-06-30T11:35:02.646Z,996.23
2017-06-30T11:36:11.703Z,996.25
2017-06-30T11:37:20.770Z,996.21
2017-06-30T11:38:29.898Z,996.27
2017-06-30T11:39:38.850Z,996.21
2017-06-30T11:40:48.158Z,996.34
2017-06-30T11:41:57.143Z,996.29
2017-06-30T11:43:06.177Z,996.38
2017-06-30T11:44:15.210Z,996.25
2017-06-30T11:45:24.184Z,996.26
2017-06-30T11:46:33.453Z,996.27
2017-06-30T11:47:42.472Z,996.19
2017-06-30T11:48:51.509Z,996.34
2017-06-30T11:50:00.538Z,996.28
2017-06-30T11:51:09.488Z,996.26
2017-06-30T11:52:18.969Z,996.24
2017-06-30T11:53:28.116Z,996.34
2017-06-30T11:54:37.296Z,996.3
2017-06-30T11:55:46.667Z,996.32
2017-06-30T11:56:56.153Z,996.25
2017-06-30T11:58:06.165Z,996.34
2017-06-30T11:59:15.218Z,996.28
2017-06-30T12:00:24.420Z,996.39
2017-06-30T12:01:33.660Z,996.36
2017-06-30T12:02:42.912Z,996.36
2017-06-30T12:03:52.439Z,996.5
2017-06-30T12:05:01.513Z,996.4
2017-06-30T12:06:10.518Z,996.46
2017-06-30T12:07:19.574Z,996.45
2017-06-30T12:08:28.526Z,996.37
2017-06-30T12:09:37.722Z,996.4
2017-06-30T12:10:46.720Z,996.45
2017-06-30T12:11:55.826Z,996.49
2017-06-30T12:13:04.835Z,996.45
2017-06-30T12:14:14.140Z,996.41
2017-06-30T12:15:23.351Z,996.47
2017-06-30T12:16:32.301Z,996.58
2017-06-30T12:17:41.245Z,996.45
2017-06-30T12:18:50.240Z,996.48
2017-06-30T12:19:59.192Z,996.47
2017-06-30T12:21:08.529Z,996.52
2017-06-30T12:22:17.477Z,996.46
2017-06-30T12:23:26.428Z,996.49
2017-06-30T12:24:35.458Z,996.39
2017-06-30T12:25:44.494Z,996.49
2017-06-30T12:26:53.692Z,996.52
2017-06-30T12:28:02.753Z,996.49
2017-06-30T12:29:11.780Z,996.52
2017-06-30T12:30:20.945Z,996.56
2017-06-30T12:31:29.929Z,996.46
2017-06-30T12:32:39.290Z,996.46
2017-06-30T12:33:48.334Z,996.52
2017-06-30T12:34:57.288Z,996.53
2017-06-30T12:36:06.238Z,996.36
2017-06-30T12:37:15.187Z,996.49
2017-06-30T12:38:24.861Z,996.49
2017-06-30T12:39:33.862Z,996.5
2017-06-30T12:40:43.038Z,996.43
2017-06-30T12:41:52.062Z,996.5
2017-06-30T12:43:01.095Z,996.53
2017-06-30T12:44:10.471Z,996.45
2017-06-30T12:45:20.346Z,996.55
2017-06-30T12:46:29.380Z,996.53
2017-06-30T12:47:38.359Z,996.45
2017-06-30T12:48:47.654Z,996.52
2017-06-30T12:49:57.082Z,996.51
2017-06-30T12:51:06.122Z,996.56
2017-06-30T12:52:15.171Z,996.5
2017-06-30T12:53:24.293Z,996.59
2017-06-30T12:54:33.274Z,996.48
2017-06-30T12:55:42.507Z,996.53
2017-06-30T12:56:51.460Z,996.55
2017-06-30T12:58:00.567Z,996.54
2017-06-30T12:59:09.606Z,996.55
2017-06-30T13:00:19.030Z,996.53
2017-06-30T13:01:28.752Z,996.47
2017-06-30T13:02:38.238Z,996.47
2017-06-30T13:03:47.266Z,996.55
2017-06-30T13:04:56.215Z,996.47
2017-06-30T13:06:05.172Z,996.5
2017-06-30T13:07:14.372Z,996.48
2017-06-30T13:08:23.318Z,996.58
2017-06-30T13:09:32.261Z,996.5
2017-06-30T13:10:41.207Z,996.53
2017-06-30T13:11:50.159Z,996.6
2017-06-30T13:12:59.408Z,996.57
2017-06-30T13:14:08.359Z,996.52
2017-06-30T13:15:17.315Z,996.55
2017-06-30T13:16:26.355Z,996.53
2017-06-30T13:17:35.328Z,996.52
2017-06-30T13:18:44.563Z,996.57
2017-06-30T13:19:53.551Z,996.52
2017-06-30T13:21:02.535Z,996.63
2017-06-30T13:22:11.516Z,996.61
2017-06-30T13:23:20.495Z,996.73
2017-06-30T13:24:29.775Z,996.7
2017-06-30T13:25:38.746Z,996.74
2017-06-30T13:26:47.709Z,996.69
2017-06-30T13:27:56.679Z,996.7
2017-06-30T13:29:05.662Z,996.69
2017-06-30T13:30:14.878Z,996.69
2017-06-30T13:31:23.845Z,996.74
2017-06-30T13:32:32.799Z,996.71
2017-06-30T13:33:41.782Z,996.74
2017-06-30T13:34:50.758Z,996.7
2017-06-30T13:35:59.987Z,996.64
2017-06-30T13:37:08.947Z,996.72
2017-06-30T13:38:18.013Z,996.73
2017-06-30T13:39:26.986Z,996.76
2017-06-30T13:40:35.949Z,996.81
2017-06-30T13:41:45.302Z,996.82
2017-06-30T13:42:54.283Z,996.69
2017-06-30T13:44:03.257Z,996.8
2017-06-30T13:45:12.223Z,996.78
2017-06-30T13:46:21.206Z,996.74
2017-06-30T13:47:30.476Z,996.8
2017-06-30T13:48:39.442Z,996.74
2017-06-30T13:49:48.419Z,996.76
2017-06-30T13:50:57.398Z,996.84
2017-06-30T13:52:06.462Z,996.76
2017-06-30T13:53:15.687Z,996.73
2017-06-30T13:54:24.652Z,996.74
2017-06-30T13:55:33.708Z,996.81
2017-06-30T13:56:42.684Z,996.89
2017-06-30T13:57:51.650Z,996.83
2017-06-30T13:59:00.943Z,996.83
2017-06-30T14:00:09.992Z,996.89
2017-06-30T14:01:18.977Z,996.9
2017-06-30T14:02:27.957Z,996.94
2017-06-30T14:03:36.930Z,996.91
2017-06-30T14:04:46.283Z,996.95
2017-06-30T14:05:55.259Z,996.96
2017-06-30T14:07:04.236Z,996.96
2017-06-30T14:08:13.206Z,996.95
2017-06-30T14:09:22.178Z,997.03
2017-06-30T14:10:31.415Z,996.97
2017-06-30T14:11:40.470Z,996.94
2017-06-30T14:12:49.439Z,997.08
2017-06-30T14:13:58.578Z,997.04
2017-06-30T14:15:07.553Z,997.04
2017-06-30T14:16:16.819Z,997.07
2017-06-30T14:17:25.796Z,997.17
2017-06-30T14:18:34.756Z,997.15
2017-06-30T14:19:43.729Z,997.24
2017-06-30T14:20:52.710Z,997.24
2017-06-30T14:22:01.991Z,997.26
2017-06-30T14:23:10.962Z,997.36
2017-06-30T14:24:19.935Z,997.38
2017-06-30T14:25:28.903Z,997.27
2017-06-30T14:26:37.873Z,997.36